Maria Desgagnes — VCWL — position and weather

sailwx.info

Track history (hours):
 
Tides and Currents Weather Stations Pressure Air Temp Water Temp Dewpoint Dewpoint Depression Visibility Wind Speed Wind Dir Waves Ship Positions

Maria Desgagnes

Last reported at 2016-Dec-06 15:33 UTC. Time now 2016-Dec-06 16:08 UTC.
Position N 48°58' W 058°01'.

Length 120 m; draft 7.1 m.

Type: Ship (hazmat cat A). MMSI: 316285000.

Date/timePositionNaut miles runAvg speedWind from/ knotsBaromVisibWave heightAir tempDewpointWater temp
2016-Dec-06 15:33N 48°58' W 058°01'4 6.9
2016-Dec-06 15:00N 48°54' W 058°00'4 2.6 290 / 131007.2 -4.3-8.0 5.3
2016-Dec-06 13:31N 48°58' W 058°01'0 0.3
2016-Dec-06 12:34N 48°58' W 058°00'4 6.9
2016-Dec-06 12:00N 48°54' W 058°00'920.6 300 / 171007.5 -3.1-7.7 4.5
2016-Dec-06 11:33N 49°02' W 058°07'6311.4
2016-Dec-06 06:00N 48°30' W 059°30'4314.3 320 / 131008.7 -2.7-7.2 6.0
2016-Dec-06 03:00N 47°48' W 059°42'3712.3 340 / 131009.4 -2.7-7.1 7.3
2016-Dec-06 00:00N 47°12' W 059°54'4314.3 330 / 161010.6 -2.3-6.3 6.4
2016-Dec-05 21:00N 46°30' W 060°06'24 8.1 320 / 141011.6 -1.6-6.3 6.9
2016-Dec-05 18:00N 46°06' W 060°12'0 0.0 340 / 141012.1 -1.8-6.8
2016-Dec-05 15:00N 46°06' W 060°12'0 0.0 320 / 141013.6 -2.1-6.9
2016-Dec-05 12:00N 46°06' W 060°12'0 0.0 330 / 101013.2 -1.3-5.1
2016-Dec-05 09:00N 46°06' W 060°12'0 0.0 320 / 111013.1 -1.2-5.9
2016-Dec-05 06:00N 46°06' W 060°12'0 0.0 330 / 151013.1 -0.8-6.7
2016-Dec-05 03:00N 46°06' W 060°12'18 6.2 330 / 161013.1 -0.7-6.3 7.7
2016-Dec-05 00:00N 46°24' W 060°06'4214.1 330 / 191012.6 0.7-3.7 7.2
2016-Dec-04 21:00N 47°06' W 060°12'3612.1 340 / 211011.5 0.8-4.6 6.2
2016-Dec-04 18:00N 47°36' W 060°42'4314.4 350 / 211010.5 -0.5-3.8 5.8
2016-Dec-04 15:00N 48°12' W 061°18'4013.4 340 / 181011.3 -1.5-3.6 4.4
2016-Dec-04 12:00N 48°30' W 062°12'3612.2 350 / 161011.6 -2.9-4.5 4.5
2016-Dec-04 09:00N 48°48' W 063°00'4314.3 350 / 171011.9 -3.7-5.7 4.3
2016-Dec-04 06:00N 49°12' W 063°54'3611.9 360 / 161012.5 -3.6-6.8 4.3
2016-Dec-04 03:00N 49°18' W 064°48'4314.5 010 / 131012.2 -2.0-6.4 4.4
2016-Dec-04 00:00N 49°24' W 065°54'4113.6 010 / 111012.3 -0.7-2.9 4.1
2016-Dec-03 21:00N 49°12' W 066°54'4013.2 010 / 141011.3 -0.6-2.6 4.2
2016-Dec-03 18:00N 48°54' W 067°48'3612.1 040 / 101010.5 -1.0-2.3 4.3
2016-Dec-03 15:00N 48°36' W 068°36'3712.2 020 / 121010.5 -1.4-3.3 3.9
2016-Dec-03 12:00N 48°18' W 069°24'3612.0 330 / 111009.4 -1.7-4.3 3.6
2016-Dec-03 09:00N 47°48' W 069°54'3912.9 010 / 141006.9 -0.3-2.3 4.1
2016-Dec-03 06:00N 47°18' W 070°30'4113.8 010 / 151004.9 1.7-2.0 4.5
2016-Dec-03 03:00N 46°48' W 071°12'0 0.0 030 / 61004.5 0.5 0.4 4.1
2016-Dec-03 00:00N 46°48' W 071°12'0 0.0 020 / 61004.0 0.8 0.7
2016-Dec-02 21:00N 46°48' W 071°12'0 0.0 060 / 71003.3 0.8 0.6
2016-Dec-02 18:00N 46°48' W 071°12'0 0.0 050 / 61003.0 0.7 0.6
2016-Dec-02 15:00N 46°48' W 071°12'0 0.0 050 / 41003.8 0.7 0.6
2016-Dec-02 12:00N 46°48' W 071°12'0 0.0 060 / 21003.0 0.4 0.3
2016-Dec-02 09:00N 46°48' W 071°12'0 0.0 160 / 11002.5 0.9 0.8
2016-Dec-02 06:00N 46°48' W 071°12'0 0.0 220 / 21001.5 0.7 0.6
2016-Dec-02 03:00N 46°48' W 071°12'0 0.0 050 / 6999.8 0.9 0.4
2016-Dec-02 00:00N 46°48' W 071°12'0 0.0 040 / 11998.6 1.9 0.9
2016-Dec-01 21:00N 46°48' W 071°12'0 0.0 050 / 15997.8 1.0 0.7
2016-Dec-01 18:00N 46°48' W 071°12'0 0.0 050 / 18998.4 1.0 0.8
2016-Dec-01 15:00N 46°48' W 071°12'0 0.0 050 / 211000.5 0.5 0.4
2016-Dec-01 12:00N 46°48' W 071°12'0 0.0 060 / 171004.9 0.1-0.0
2016-Dec-01 09:00N 46°48' W 071°12'0 0.0 050 / 221004.4 1.0 0.8
2016-Dec-01 06:00N 46°48' W 071°12'0 0.0 050 / 191010.3 1.2 0.9
2016-Dec-01 03:00N 46°48' W 071°12'0 0.0 050 / 191012.0 3.2 0.5
2016-Dec-01 00:00N 46°48' W 071°12'0 0.0 060 / 181015.0 2.5 0.8
2016-Nov-30 21:00N 46°48' W 071°12'0 0.0 060 / 161016.7 2.1 0.9
2016-Nov-30 18:00N 46°48' W 071°12'0 0.0 060 / 131016.2 2.1 0.2
2016-Nov-30 15:00N 46°48' W 071°12'0 0.0 050 / 121017.6 2.2 0.9
2016-Nov-30 12:00N 46°48' W 071°12'0 0.0 050 / 121015.7 1.8 0.4
2016-Nov-30 09:00N 46°48' W 071°12'0 0.0 050 / 141014.7 1.8 0.2
2016-Nov-30 06:00N 46°48' W 071°12'0 0.0 040 / 151014.0 1.6 0.9
2016-Nov-30 03:00N 46°48' W 071°12'0 0.0 040 / 171013.5 1.4 0.8
2016-Nov-30 00:00N 46°48' W 071°12'0 0.0 040 / 181015.3 1.0 0.7
2016-Nov-29 21:00N 46°48' W 071°12'0 0.0 050 / 171016.2 0.4-0.3
2016-Nov-29 18:00N 46°48' W 071°12'0 0.0 050 / 201018.2 0.5-1.2
2016-Nov-29 15:00N 46°48' W 071°12'0 0.0 060 / 181020.6 0.2-1.9
2016-Nov-29 12:00N 46°48' W 071°12'0 0.0 070 / 91021.9 -1.9-3.4
2016-Nov-29 09:00N 46°48' W 071°12'0 0.0 070 / 71023.1 -1.9-3.7
2016-Nov-29 06:00N 46°48' W 071°12'0 0.0 190 / 31023.4 -1.4-2.9
2016-Nov-29 03:00N 46°48' W 071°12'0 0.0 240 / 81022.2 -1.5-2.8
2016-Nov-29 00:00N 46°48' W 071°12'0 0.0 250 / 101021.5 -0.2-2.2
2016-Nov-28 21:00N 46°48' W 071°12'0 0.0 250 / 111020.1 0.8-1.8
2016-Nov-28 18:00N 46°48' W 071°12'0 0.0 240 / 111019.7 1.6-1.5
2016-Nov-28 12:00N 46°48' W 071°12'0 0.0 260 / 61018.0 0.3-1.3
2016-Nov-28 09:00N 46°48' W 071°12'0 0.0 260 / 71016.7 1.0-0.5
2016-Nov-28 06:00N 46°48' W 071°12'0 0.0 250 / 61016.4 1.2 0.1
2016-Nov-28 03:00N 46°48' W 071°12'0 0.0 250 / 31016.1 1.4 0.9
2016-Nov-28 00:00N 46°48' W 071°12'0 0.0 230 / 21016.0 0.9 0.8
2016-Nov-27 21:00N 46°48' W 071°12'0 0.0 250 / 61015.6 1.9 1.2
2016-Nov-27 18:00N 46°48' W 071°12'0 0.0 240 / 61015.9 1.8 1.2
2016-Nov-27 15:00N 46°48' W 071°12'0 0.0 240 / 41017.2 1.4 0.9
2016-Nov-27 12:00N 46°48' W 071°12'0 0.0 250 / 41017.1 0.9 0.8
2016-Nov-27 09:00N 46°48' W 071°12'0 0.0 240 / 21017.3 0.7 0.6
2016-Nov-27 06:00N 46°48' W 071°12'0 0.0 230 / 31017.9 0.9 0.8
2016-Nov-27 03:00N 46°48' W 071°12'0 0.0 070 / 61018.0 2.1 1.9
2016-Nov-27 00:00N 46°48' W 071°12'0 0.0 040 / 101018.4 3.1 2.4
2016-Nov-26 21:00N 46°48' W 071°12'0 0.0 050 / 71018.3 2.5 1.8
2016-Nov-26 18:00N 46°48' W 071°12'   050 / 61018.8 1.9 1.4 5.7
Track history (hours):
 
Tides and Currents Weather Stations Pressure Air Temp Water Temp Dewpoint Dewpoint Depression Visibility Wind Speed Wind Dir Waves Ship Positions

Maria Desgagnes

Last reported at 2016-Dec-06 15:33 UTC. Time now 2016-Dec-06 16:08 UTC.
Position N 48°58' W 058°01'.

Length 120 m; draft 7.1 m.

Type: Ship (hazmat cat A). MMSI: 316285000.

Date/timePositionNaut miles runAvg speedWind from/ knotsBaromVisibWave heightAir tempDewpointWater temp
2016-Dec-06 15:33N 48°58' W 058°01'4 6.9
2016-Dec-06 15:00N 48°54' W 058°00'4 2.6 290 / 131007.2 -4.3-8.0 5.3
2016-Dec-06 13:31N 48°58' W 058°01'0 0.3
2016-Dec-06 12:34N 48°58' W 058°00'4 6.9
2016-Dec-06 12:00N 48°54' W 058°00'920.6 300 / 171007.5 -3.1-7.7 4.5
2016-Dec-06 11:33N 49°02' W 058°07'6311.4
2016-Dec-06 06:00N 48°30' W 059°30'4314.3 320 / 131008.7 -2.7-7.2 6.0
2016-Dec-06 03:00N 47°48' W 059°42'3712.3 340 / 131009.4 -2.7-7.1 7.3
2016-Dec-06 00:00N 47°12' W 059°54'4314.3 330 / 161010.6 -2.3-6.3 6.4
2016-Dec-05 21:00N 46°30' W 060°06'24 8.1 320 / 141011.6 -1.6-6.3 6.9
2016-Dec-05 18:00N 46°06' W 060°12'0 0.0 340 / 141012.1 -1.8-6.8
2016-Dec-05 15:00N 46°06' W 060°12'0 0.0 320 / 141013.6 -2.1-6.9
2016-Dec-05 12:00N 46°06' W 060°12'0 0.0 330 / 101013.2 -1.3-5.1
2016-Dec-05 09:00N 46°06' W 060°12'0 0.0 320 / 111013.1 -1.2-5.9
2016-Dec-05 06:00N 46°06' W 060°12'0 0.0 330 / 151013.1 -0.8-6.7
2016-Dec-05 03:00N 46°06' W 060°12'18 6.2 330 / 161013.1 -0.7-6.3 7.7
2016-Dec-05 00:00N 46°24' W 060°06'4214.1 330 / 191012.6 0.7-3.7 7.2
2016-Dec-04 21:00N 47°06' W 060°12'3612.1 340 / 211011.5 0.8-4.6 6.2
2016-Dec-04 18:00N 47°36' W 060°42'4314.4 350 / 211010.5 -0.5-3.8 5.8
2016-Dec-04 15:00N 48°12' W 061°18'4013.4 340 / 181011.3 -1.5-3.6 4.4
2016-Dec-04 12:00N 48°30' W 062°12'3612.2 350 / 161011.6 -2.9-4.5 4.5
2016-Dec-04 09:00N 48°48' W 063°00'4314.3 350 / 171011.9 -3.7-5.7 4.3
2016-Dec-04 06:00N 49°12' W 063°54'3611.9 360 / 161012.5 -3.6-6.8 4.3
2016-Dec-04 03:00N 49°18' W 064°48'4314.5 010 / 131012.2 -2.0-6.4 4.4
2016-Dec-04 00:00N 49°24' W 065°54'4113.6 010 / 111012.3 -0.7-2.9 4.1
2016-Dec-03 21:00N 49°12' W 066°54'4013.2 010 / 141011.3 -0.6-2.6 4.2
2016-Dec-03 18:00N 48°54' W 067°48'3612.1 040 / 101010.5 -1.0-2.3 4.3
2016-Dec-03 15:00N 48°36' W 068°36'3712.2 020 / 121010.5 -1.4-3.3 3.9
2016-Dec-03 12:00N 48°18' W 069°24'3612.0 330 / 111009.4 -1.7-4.3 3.6
2016-Dec-03 09:00N 47°48' W 069°54'3912.9 010 / 141006.9 -0.3-2.3 4.1
2016-Dec-03 06:00N 47°18' W 070°30'4113.8 010 / 151004.9 1.7-2.0 4.5
2016-Dec-03 03:00N 46°48' W 071°12'0 0.0 030 / 61004.5 0.5 0.4 4.1
2016-Dec-03 00:00N 46°48' W 071°12'0 0.0 020 / 61004.0 0.8 0.7
2016-Dec-02 21:00N 46°48' W 071°12'0 0.0 060 / 71003.3 0.8 0.6
2016-Dec-02 18:00N 46°48' W 071°12'0 0.0 050 / 61003.0 0.7 0.6
2016-Dec-02 15:00N 46°48' W 071°12'0 0.0 050 / 41003.8 0.7 0.6
2016-Dec-02 12:00N 46°48' W 071°12'0 0.0 060 / 21003.0 0.4 0.3
2016-Dec-02 09:00N 46°48' W 071°12'0 0.0 160 / 11002.5 0.9 0.8
2016-Dec-02 06:00N 46°48' W 071°12'0 0.0 220 / 21001.5 0.7 0.6
2016-Dec-02 03:00N 46°48' W 071°12'0 0.0 050 / 6999.8 0.9 0.4
2016-Dec-02 00:00N 46°48' W 071°12'0 0.0 040 / 11998.6 1.9 0.9
2016-Dec-01 21:00N 46°48' W 071°12'0 0.0 050 / 15997.8 1.0 0.7
2016-Dec-01 18:00N 46°48' W 071°12'0 0.0 050 / 18998.4 1.0 0.8
2016-Dec-01 15:00N 46°48' W 071°12'0 0.0 050 / 211000.5 0.5 0.4
2016-Dec-01 12:00N 46°48' W 071°12'0 0.0 060 / 171004.9 0.1-0.0
2016-Dec-01 09:00N 46°48' W 071°12'0 0.0 050 / 221004.4 1.0 0.8
2016-Dec-01 06:00N 46°48' W 071°12'0 0.0 050 / 191010.3 1.2 0.9
2016-Dec-01 03:00N 46°48' W 071°12'0 0.0 050 / 191012.0 3.2 0.5
2016-Dec-01 00:00N 46°48' W 071°12'0 0.0 060 / 181015.0 2.5 0.8
2016-Nov-30 21:00N 46°48' W 071°12'0 0.0 060 / 161016.7 2.1 0.9
2016-Nov-30 18:00N 46°48' W 071°12'0 0.0 060 / 131016.2 2.1 0.2
2016-Nov-30 15:00N 46°48' W 071°12'0 0.0 050 / 121017.6 2.2 0.9
2016-Nov-30 12:00N 46°48' W 071°12'0 0.0 050 / 121015.7 1.8 0.4
2016-Nov-30 09:00N 46°48' W 071°12'0 0.0 050 / 141014.7 1.8 0.2
2016-Nov-30 06:00N 46°48' W 071°12'0 0.0 040 / 151014.0 1.6 0.9
2016-Nov-30 03:00N 46°48' W 071°12'0 0.0 040 / 171013.5 1.4 0.8
2016-Nov-30 00:00N 46°48' W 071°12'0 0.0 040 / 181015.3 1.0 0.7
2016-Nov-29 21:00N 46°48' W 071°12'0 0.0 050 / 171016.2 0.4-0.3
2016-Nov-29 18:00N 46°48' W 071°12'0 0.0 050 / 201018.2 0.5-1.2
2016-Nov-29 15:00N 46°48' W 071°12'0 0.0 060 / 181020.6 0.2-1.9
2016-Nov-29 12:00N 46°48' W 071°12'0 0.0 070 / 91021.9 -1.9-3.4
2016-Nov-29 09:00N 46°48' W 071°12'0 0.0 070 / 71023.1 -1.9-3.7
2016-Nov-29 06:00N 46°48' W 071°12'0 0.0 190 / 31023.4 -1.4-2.9
2016-Nov-29 03:00N 46°48' W 071°12'0 0.0 240 / 81022.2 -1.5-2.8
2016-Nov-29 00:00N 46°48' W 071°12'0 0.0 250 / 101021.5 -0.2-2.2
2016-Nov-28 21:00N 46°48' W 071°12'0 0.0 250 / 111020.1 0.8-1.8
2016-Nov-28 18:00N 46°48' W 071°12'0 0.0 240 / 111019.7 1.6-1.5
2016-Nov-28 12:00N 46°48' W 071°12'0 0.0 260 / 61018.0 0.3-1.3
2016-Nov-28 09:00N 46°48' W 071°12'0 0.0 260 / 71016.7 1.0-0.5
2016-Nov-28 06:00N 46°48' W 071°12'0 0.0 250 / 61016.4 1.2 0.1
2016-Nov-28 03:00N 46°48' W 071°12'0 0.0 250 / 31016.1 1.4 0.9
2016-Nov-28 00:00N 46°48' W 071°12'0 0.0 230 / 21016.0 0.9 0.8
2016-Nov-27 21:00N 46°48' W 071°12'0 0.0 250 / 61015.6 1.9 1.2
2016-Nov-27 18:00N 46°48' W 071°12'0 0.0 240 / 61015.9 1.8 1.2
2016-Nov-27 15:00N 46°48' W 071°12'0 0.0 240 / 41017.2 1.4 0.9
2016-Nov-27 12:00N 46°48' W 071°12'0 0.0 250 / 41017.1 0.9 0.8
2016-Nov-27 09:00N 46°48' W 071°12'0 0.0 240 / 21017.3 0.7 0.6
2016-Nov-27 06:00N 46°48' W 071°12'0 0.0 230 / 31017.9 0.9 0.8
2016-Nov-27 03:00N 46°48' W 071°12'0 0.0 070 / 61018.0 2.1 1.9
2016-Nov-27 00:00N 46°48' W 071°12'0 0.0 040 / 101018.4 3.1 2.4
2016-Nov-26 21:00N 46°48' W 071°12'0 0.0 050 / 71018.3 2.5 1.8
2016-Nov-26 18:00N 46°48' W 071°12'   050 / 61018.8 1.9 1.4 5.7

Dump ship's entire track history